sensor_id;sensor_type;location;lat;lon;timestamp;P1;durP1;ratioP1;P2;durP2;ratioP2
74042;SDS011;62384;53.600;10.040;2023-05-07T00:00:12;15.43;;;7.18;;
74042;SDS011;62384;53.600;10.040;2023-05-07T00:02:40;11.20;;;6.03;;
74042;SDS011;62384;53.600;10.040;2023-05-07T00:05:06;10.48;;;5.95;;
74042;SDS011;62384;53.600;10.040;2023-05-07T00:07:32;14.15;;;6.65;;
74042;SDS011;62384;53.600;10.040;2023-05-07T00:09:57;13.63;;;6.45;;
74042;SDS011;62384;53.600;10.040;2023-05-07T00:12:22;11.45;;;5.75;;
74042;SDS011;62384;53.600;10.040;2023-05-07T00:14:47;12.27;;;6.53;;
74042;SDS011;62384;53.600;10.040;2023-05-07T00:17:13;13.98;;;6.40;;
74042;SDS011;62384;53.600;10.040;2023-05-07T00:19:38;13.45;;;6.15;;
74042;SDS011;62384;53.600;10.040;2023-05-07T00:22:03;14.50;;;6.88;;
74042;SDS011;62384;53.600;10.040;2023-05-07T00:24:29;14.23;;;6.82;;
74042;SDS011;62384;53.600;10.040;2023-05-07T00:26:54;18.98;;;8.05;;
74042;SDS011;62384;53.600;10.040;2023-05-07T00:29:19;13.60;;;6.90;;
74042;SDS011;62384;53.600;10.040;2023-05-07T00:31:45;12.50;;;6.93;;
74042;SDS011;62384;53.600;10.040;2023-05-07T00:34:10;11.55;;;6.63;;
74042;SDS011;62384;53.600;10.040;2023-05-07T00:36:35;12.43;;;6.57;;
74042;SDS011;62384;53.600;10.040;2023-05-07T00:39:00;14.70;;;7.57;;
74042;SDS011;62384;53.600;10.040;2023-05-07T00:41:28;14.52;;;6.43;;
74042;SDS011;62384;53.600;10.040;2023-05-07T00:43:55;12.07;;;6.32;;
74042;SDS011;62384;53.600;10.040;2023-05-07T00:46:20;14.02;;;6.63;;
74042;SDS011;62384;53.600;10.040;2023-05-07T00:48:46;15.10;;;7.05;;
74042;SDS011;62384;53.600;10.040;2023-05-07T00:51:12;15.32;;;6.88;;
74042;SDS011;62384;53.600;10.040;2023-05-07T00:53:37;12.32;;;6.32;;
74042;SDS011;62384;53.600;10.040;2023-05-07T00:56:03;15.88;;;6.43;;
74042;SDS011;62384;53.600;10.040;2023-05-07T00:58:28;12.45;;;6.47;;
74042;SDS011;62384;53.600;10.040;2023-05-07T01:00:54;13.23;;;6.45;;
74042;SDS011;62384;53.600;10.040;2023-05-07T01:03:19;13.35;;;7.15;;
74042;SDS011;62384;53.600;10.040;2023-05-07T01:05:45;14.77;;;6.78;;
74042;SDS011;62384;53.600;10.040;2023-05-07T01:08:13;13.63;;;7.32;;
74042;SDS011;62384;53.600;10.040;2023-05-07T01:10:40;13.45;;;6.95;;
74042;SDS011;62384;53.600;10.040;2023-05-07T01:13:08;13.38;;;7.38;;
74042;SDS011;62384;53.600;10.040;2023-05-07T01:15:35;16.77;;;7.15;;
74042;SDS011;62384;53.600;10.040;2023-05-07T01:18:00;16.42;;;7.57;;
74042;SDS011;62384;53.600;10.040;2023-05-07T01:20:25;14.63;;;6.72;;
74042;SDS011;62384;53.600;10.040;2023-05-07T01:22:53;12.88;;;7.07;;
74042;SDS011;62384;53.600;10.040;2023-05-07T01:25:19;13.18;;;7.07;;
74042;SDS011;62384;53.600;10.040;2023-05-07T01:27:45;13.10;;;6.13;;
74042;SDS011;62384;53.600;10.040;2023-05-07T01:30:10;12.07;;;5.63;;
74042;SDS011;62384;53.600;10.040;2023-05-07T01:32:48;10.68;;;5.82;;
74042;SDS011;62384;53.600;10.040;2023-05-07T01:35:19;16.00;;;7.18;;
74042;SDS011;62384;53.600;10.040;2023-05-07T01:37:47;13.88;;;6.20;;
74042;SDS011;62384;53.600;10.040;2023-05-07T01:40:13;11.85;;;6.05;;
74042;SDS011;62384;53.600;10.040;2023-05-07T01:42:38;12.07;;;5.70;;
74042;SDS011;62384;53.600;10.040;2023-05-07T01:45:05;12.57;;;6.30;;
74042;SDS011;62384;53.600;10.040;2023-05-07T01:47:31;13.30;;;6.45;;
74042;SDS011;62384;53.600;10.040;2023-05-07T01:49:57;10.02;;;5.65;;
74042;SDS011;62384;53.600;10.040;2023-05-07T01:52:23;12.18;;;6.22;;
74042;SDS011;62384;53.600;10.040;2023-05-07T01:54:50;13.10;;;5.90;;
74042;SDS011;62384;53.600;10.040;2023-05-07T01:57:15;11.25;;;6.05;;
74042;SDS011;62384;53.600;10.040;2023-05-07T01:59:40;12.13;;;5.95;;
74042;SDS011;62384;53.600;10.040;2023-05-07T02:02:05;11.10;;;5.30;;
74042;SDS011;62384;53.600;10.040;2023-05-07T02:04:30;10.73;;;5.97;;
74042;SDS011;62384;53.600;10.040;2023-05-07T02:06:56;11.80;;;6.60;;
74042;SDS011;62384;53.600;10.040;2023-05-07T02:09:21;12.15;;;5.72;;
74042;SDS011;62384;53.600;10.040;2023-05-07T02:11:47;12.43;;;5.90;;
74042;SDS011;62384;53.600;10.040;2023-05-07T02:14:13;12.63;;;5.72;;
74042;SDS011;62384;53.600;10.040;2023-05-07T02:16:38;13.98;;;6.28;;
74042;SDS011;62384;53.600;10.040;2023-05-07T02:19:04;13.55;;;5.78;;
74042;SDS011;62384;53.600;10.040;2023-05-07T02:21:29;13.20;;;5.97;;
74042;SDS011;62384;53.600;10.040;2023-05-07T02:23:54;9.80;;;5.13;;
74042;SDS011;62384;53.600;10.040;2023-05-07T02:26:20;11.38;;;5.53;;
74042;SDS011;62384;53.600;10.040;2023-05-07T02:28:46;11.32;;;4.95;;
74042;SDS011;62384;53.600;10.040;2023-05-07T02:31:12;12.70;;;5.43;;
74042;SDS011;62384;53.600;10.040;2023-05-07T02:33:37;11.18;;;5.20;;
74042;SDS011;62384;53.600;10.040;2023-05-07T02:36:10;10.27;;;4.60;;
74042;SDS011;62384;53.600;10.040;2023-05-07T02:38:36;9.40;;;4.85;;
74042;SDS011;62384;53.600;10.040;2023-05-07T02:41:01;13.45;;;5.10;;
74042;SDS011;62384;53.600;10.040;2023-05-07T02:43:26;9.95;;;4.97;;
74042;SDS011;62384;53.600;10.040;2023-05-07T02:46:05;9.75;;;5.50;;
74042;SDS011;62384;53.600;10.040;2023-05-07T02:48:31;9.98;;;4.90;;
74042;SDS011;62384;53.600;10.040;2023-05-07T02:50:57;12.23;;;5.55;;
74042;SDS011;62384;53.600;10.040;2023-05-07T02:53:23;13.43;;;5.95;;
74042;SDS011;62384;53.600;10.040;2023-05-07T02:55:51;11.07;;;5.90;;
74042;SDS011;62384;53.600;10.040;2023-05-07T02:58:17;11.68;;;6.50;;
74042;SDS011;62384;53.600;10.040;2023-05-07T03:00:43;12.48;;;5.97;;
74042;SDS011;62384;53.600;10.040;2023-05-07T03:03:08;11.07;;;5.88;;
74042;SDS011;62384;53.600;10.040;2023-05-07T03:05:33;14.52;;;7.13;;
74042;SDS011;62384;53.600;10.040;2023-05-07T03:07:58;12.32;;;6.15;;
74042;SDS011;62384;53.600;10.040;2023-05-07T03:10:23;11.63;;;6.22;;
74042;SDS011;62384;53.600;10.040;2023-05-07T03:12:49;10.02;;;5.60;;
74042;SDS011;62384;53.600;10.040;2023-05-07T03:15:14;11.95;;;6.10;;
74042;SDS011;62384;53.600;10.040;2023-05-07T03:17:39;12.60;;;6.10;;
74042;SDS011;62384;53.600;10.040;2023-05-07T03:20:05;10.57;;;5.50;;
74042;SDS011;62384;53.600;10.040;2023-05-07T03:22:31;11.15;;;6.68;;
74042;SDS011;62384;53.600;10.040;2023-05-07T03:24:57;11.85;;;6.07;;
74042;SDS011;62384;53.600;10.040;2023-05-07T03:27:22;17.05;;;7.25;;
74042;SDS011;62384;53.600;10.040;2023-05-07T03:29:47;14.20;;;6.55;;
74042;SDS011;62384;53.600;10.040;2023-05-07T03:32:13;12.35;;;6.82;;
74042;SDS011;62384;53.600;10.040;2023-05-07T03:34:38;12.85;;;6.22;;
74042;SDS011;62384;53.600;10.040;2023-05-07T03:37:03;14.55;;;6.38;;
74042;SDS011;62384;53.600;10.040;2023-05-07T03:39:29;14.43;;;6.88;;
74042;SDS011;62384;53.600;10.040;2023-05-07T03:41:54;13.25;;;6.32;;
74042;SDS011;62384;53.600;10.040;2023-05-07T03:44:20;11.65;;;6.47;;
74042;SDS011;62384;53.600;10.040;2023-05-07T03:46:45;10.48;;;5.82;;
74042;SDS011;62384;53.600;10.040;2023-05-07T03:49:10;12.15;;;6.00;;
74042;SDS011;62384;53.600;10.040;2023-05-07T03:51:35;13.35;;;6.60;;
74042;SDS011;62384;53.600;10.040;2023-05-07T03:54:01;11.57;;;6.15;;
74042;SDS011;62384;53.600;10.040;2023-05-07T03:56:26;13.07;;;6.15;;
74042;SDS011;62384;53.600;10.040;2023-05-07T03:58:52;10.75;;;5.47;;
74042;SDS011;62384;53.600;10.040;2023-05-07T04:01:17;14.85;;;6.18;;
74042;SDS011;62384;53.600;10.040;2023-05-07T04:03:43;11.30;;;6.53;;
74042;SDS011;62384;53.600;10.040;2023-05-07T04:06:08;14.43;;;6.72;;
74042;SDS011;62384;53.600;10.040;2023-05-07T04:08:34;12.05;;;5.90;;
74042;SDS011;62384;53.600;10.040;2023-05-07T04:10:59;11.25;;;6.05;;
74042;SDS011;62384;53.600;10.040;2023-05-07T04:13:24;13.18;;;6.07;;
74042;SDS011;62384;53.600;10.040;2023-05-07T04:15:50;10.60;;;5.68;;
74042;SDS011;62384;53.600;10.040;2023-05-07T04:18:16;11.73;;;6.10;;
74042;SDS011;62384;53.600;10.040;2023-05-07T04:20:41;10.63;;;5.75;;
74042;SDS011;62384;53.600;10.040;2023-05-07T04:23:07;11.40;;;5.45;;
74042;SDS011;62384;53.600;10.040;2023-05-07T04:25:33;10.02;;;6.18;;
74042;SDS011;62384;53.600;10.040;2023-05-07T04:27:58;12.27;;;6.25;;
74042;SDS011;62384;53.600;10.040;2023-05-07T04:30:24;10.52;;;5.70;;
74042;SDS011;62384;53.600;10.040;2023-05-07T04:32:49;9.52;;;5.50;;
74042;SDS011;62384;53.600;10.040;2023-05-07T04:35:14;9.55;;;5.45;;
74042;SDS011;62384;53.600;10.040;2023-05-07T04:37:39;10.20;;;4.90;;
74042;SDS011;62384;53.600;10.040;2023-05-07T04:40:05;9.23;;;4.75;;
74042;SDS011;62384;53.600;10.040;2023-05-07T04:42:31;9.95;;;5.32;;
74042;SDS011;62384;53.600;10.040;2023-05-07T04:44:56;9.05;;;4.68;;
74042;SDS011;62384;53.600;10.040;2023-05-07T04:47:21;12.00;;;5.60;;
74042;SDS011;62384;53.600;10.040;2023-05-07T04:49:46;9.60;;;4.72;;
74042;SDS011;62384;53.600;10.040;2023-05-07T04:52:12;12.55;;;5.25;;
74042;SDS011;62384;53.600;10.040;2023-05-07T04:54:37;10.52;;;5.07;;
74042;SDS011;62384;53.600;10.040;2023-05-07T04:57:05;10.40;;;5.50;;
74042;SDS011;62384;53.600;10.040;2023-05-07T04:59:30;9.52;;;5.57;;
74042;SDS011;62384;53.600;10.040;2023-05-07T05:01:57;13.27;;;5.55;;
74042;SDS011;62384;53.600;10.040;2023-05-07T05:04:22;13.00;;;5.47;;
74042;SDS011;62384;53.600;10.040;2023-05-07T05:06:47;8.93;;;5.05;;
74042;SDS011;62384;53.600;10.040;2023-05-07T05:09:13;10.02;;;5.72;;
74042;SDS011;62384;53.600;10.040;2023-05-07T05:11:39;8.85;;;4.95;;
74042;SDS011;62384;53.600;10.040;2023-05-07T05:14:04;10.65;;;5.22;;
74042;SDS011;62384;53.600;10.040;2023-05-07T05:16:30;10.63;;;5.25;;
74042;SDS011;62384;53.600;10.040;2023-05-07T05:18:55;11.70;;;5.07;;
74042;SDS011;62384;53.600;10.040;2023-05-07T05:21:20;11.23;;;5.53;;
74042;SDS011;62384;53.600;10.040;2023-05-07T05:23:46;11.05;;;5.47;;
74042;SDS011;62384;53.600;10.040;2023-05-07T05:26:12;10.88;;;5.22;;
74042;SDS011;62384;53.600;10.040;2023-05-07T05:28:37;11.73;;;5.28;;
74042;SDS011;62384;53.600;10.040;2023-05-07T05:31:02;14.18;;;5.55;;
74042;SDS011;62384;53.600;10.040;2023-05-07T05:33:27;11.20;;;5.20;;
74042;SDS011;62384;53.600;10.040;2023-05-07T05:35:56;11.55;;;5.70;;
74042;SDS011;62384;53.600;10.040;2023-05-07T05:38:21;12.07;;;5.32;;
74042;SDS011;62384;53.600;10.040;2023-05-07T05:40:46;11.05;;;6.03;;
74042;SDS011;62384;53.600;10.040;2023-05-07T05:43:13;14.75;;;6.05;;
74042;SDS011;62384;53.600;10.040;2023-05-07T05:45:38;11.57;;;5.30;;
74042;SDS011;62384;53.600;10.040;2023-05-07T05:48:04;9.63;;;5.30;;
74042;SDS011;62384;53.600;10.040;2023-05-07T05:50:29;9.18;;;5.30;;
74042;SDS011;62384;53.600;10.040;2023-05-07T05:52:54;10.55;;;5.88;;
74042;SDS011;62384;53.600;10.040;2023-05-07T05:55:20;9.80;;;5.05;;
74042;SDS011;62384;53.600;10.040;2023-05-07T05:57:45;13.00;;;5.53;;
74042;SDS011;62384;53.600;10.040;2023-05-07T06:00:11;10.15;;;5.68;;
74042;SDS011;62384;53.600;10.040;2023-05-07T06:02:36;11.75;;;5.57;;
74042;SDS011;62384;53.600;10.040;2023-05-07T06:05:02;10.13;;;5.55;;
74042;SDS011;62384;53.600;10.040;2023-05-07T06:07:28;7.75;;;4.55;;
74042;SDS011;62384;53.600;10.040;2023-05-07T06:09:53;10.18;;;5.30;;
74042;SDS011;62384;53.600;10.040;2023-05-07T06:12:20;12.90;;;5.68;;
74042;SDS011;62384;53.600;10.040;2023-05-07T06:14:45;12.45;;;5.78;;
74042;SDS011;62384;53.600;10.040;2023-05-07T06:17:11;11.10;;;5.15;;
74042;SDS011;62384;53.600;10.040;2023-05-07T06:19:36;9.10;;;5.13;;
74042;SDS011;62384;53.600;10.040;2023-05-07T06:22:02;11.23;;;5.78;;
74042;SDS011;62384;53.600;10.040;2023-05-07T06:24:27;9.80;;;5.20;;
74042;SDS011;62384;53.600;10.040;2023-05-07T06:26:53;9.73;;;4.65;;
74042;SDS011;62384;53.600;10.040;2023-05-07T06:29:18;10.38;;;5.72;;
74042;SDS011;62384;53.600;10.040;2023-05-07T06:31:43;8.02;;;4.78;;
74042;SDS011;62384;53.600;10.040;2023-05-07T06:34:09;8.88;;;5.00;;
74042;SDS011;62384;53.600;10.040;2023-05-07T06:36:35;9.30;;;4.85;;
74042;SDS011;62384;53.600;10.040;2023-05-07T06:39:01;9.27;;;4.93;;
74042;SDS011;62384;53.600;10.040;2023-05-07T06:41:27;9.32;;;5.05;;
74042;SDS011;62384;53.600;10.040;2023-05-07T06:43:52;8.82;;;4.40;;
74042;SDS011;62384;53.600;10.040;2023-05-07T06:46:17;8.25;;;5.00;;
74042;SDS011;62384;53.600;10.040;2023-05-07T06:48:43;11.27;;;5.57;;
74042;SDS011;62384;53.600;10.040;2023-05-07T06:51:08;12.43;;;5.85;;
74042;SDS011;62384;53.600;10.040;2023-05-07T06:53:34;9.68;;;5.10;;
74042;SDS011;62384;53.600;10.040;2023-05-07T06:56:00;9.18;;;5.03;;
74042;SDS011;62384;53.600;10.040;2023-05-07T06:58:25;9.13;;;4.85;;
74042;SDS011;62384;53.600;10.040;2023-05-07T07:00:51;8.20;;;4.55;;
74042;SDS011;62384;53.600;10.040;2023-05-07T07:03:16;8.07;;;4.82;;
74042;SDS011;62384;53.600;10.040;2023-05-07T07:05:41;7.07;;;4.85;;
74042;SDS011;62384;53.600;10.040;2023-05-07T07:08:07;10.20;;;5.07;;
74042;SDS011;62384;53.600;10.040;2023-05-07T07:10:32;8.98;;;4.82;;
74042;SDS011;62384;53.600;10.040;2023-05-07T07:12:57;9.93;;;4.78;;
74042;SDS011;62384;53.600;10.040;2023-05-07T07:15:22;7.95;;;4.85;;
74042;SDS011;62384;53.600;10.040;2023-05-07T07:17:49;8.68;;;4.70;;
74042;SDS011;62384;53.600;10.040;2023-05-07T07:20:15;8.73;;;4.85;;
74042;SDS011;62384;53.600;10.040;2023-05-07T07:22:41;8.30;;;4.20;;
74042;SDS011;62384;53.600;10.040;2023-05-07T07:25:06;8.75;;;4.97;;
74042;SDS011;62384;53.600;10.040;2023-05-07T07:27:32;9.73;;;4.82;;
74042;SDS011;62384;53.600;10.040;2023-05-07T07:29:57;7.00;;;4.07;;
74042;SDS011;62384;53.600;10.040;2023-05-07T07:32:22;7.97;;;4.78;;
74042;SDS011;62384;53.600;10.040;2023-05-07T07:34:48;8.88;;;4.35;;
74042;SDS011;62384;53.600;10.040;2023-05-07T07:37:13;6.72;;;3.88;;
74042;SDS011;62384;53.600;10.040;2023-05-07T07:39:39;7.82;;;4.55;;
74042;SDS011;62384;53.600;10.040;2023-05-07T07:42:04;7.65;;;4.32;;
74042;SDS011;62384;53.600;10.040;2023-05-07T07:44:29;8.10;;;4.20;;
74042;SDS011;62384;53.600;10.040;2023-05-07T07:46:55;8.45;;;4.47;;
74042;SDS011;62384;53.600;10.040;2023-05-07T07:49:20;6.38;;;4.22;;
74042;SDS011;62384;53.600;10.040;2023-05-07T07:51:45;7.10;;;3.97;;
74042;SDS011;62384;53.600;10.040;2023-05-07T07:54:10;7.85;;;4.40;;
74042;SDS011;62384;53.600;10.040;2023-05-07T07:56:36;7.45;;;3.53;;
74042;SDS011;62384;53.600;10.040;2023-05-07T07:59:01;8.05;;;4.50;;
74042;SDS011;62384;53.600;10.040;2023-05-07T08:01:29;5.97;;;3.90;;
74042;SDS011;62384;53.600;10.040;2023-05-07T08:03:54;6.88;;;4.10;;
74042;SDS011;62384;53.600;10.040;2023-05-07T08:06:20;6.68;;;4.57;;
74042;SDS011;62384;53.600;10.040;2023-05-07T08:08:45;7.13;;;4.00;;
74042;SDS011;62384;53.600;10.040;2023-05-07T08:11:10;8.43;;;4.68;;
74042;SDS011;62384;53.600;10.040;2023-05-07T08:13:36;8.20;;;4.75;;
74042;SDS011;62384;53.600;10.040;2023-05-07T08:16:01;8.98;;;4.85;;
74042;SDS011;62384;53.600;10.040;2023-05-07T08:18:27;6.93;;;4.78;;
74042;SDS011;62384;53.600;10.040;2023-05-07T08:20:53;8.38;;;4.30;;
74042;SDS011;62384;53.600;10.040;2023-05-07T08:23:21;7.13;;;4.68;;
74042;SDS011;62384;53.600;10.040;2023-05-07T08:25:48;8.90;;;4.50;;
74042;SDS011;62384;53.600;10.040;2023-05-07T08:28:14;8.23;;;4.55;;
74042;SDS011;62384;53.600;10.040;2023-05-07T08:30:40;6.90;;;4.38;;
74042;SDS011;62384;53.600;10.040;2023-05-07T08:33:05;10.73;;;5.35;;
74042;SDS011;62384;53.600;10.040;2023-05-07T08:35:30;10.05;;;5.13;;
74042;SDS011;62384;53.600;10.040;2023-05-07T08:37:56;7.38;;;4.20;;
74042;SDS011;62384;53.600;10.040;2023-05-07T08:40:23;8.52;;;4.88;;
74042;SDS011;62384;53.600;10.040;2023-05-07T08:42:50;6.35;;;4.70;;
74042;SDS011;62384;53.600;10.040;2023-05-07T08:45:17;7.70;;;4.28;;
74042;SDS011;62384;53.600;10.040;2023-05-07T08:47:44;7.25;;;4.18;;
74042;SDS011;62384;53.600;10.040;2023-05-07T08:50:12;8.52;;;4.63;;
74042;SDS011;62384;53.600;10.040;2023-05-07T08:52:37;7.57;;;4.22;;
74042;SDS011;62384;53.600;10.040;2023-05-07T08:55:04;6.55;;;3.67;;
74042;SDS011;62384;53.600;10.040;2023-05-07T08:57:31;6.97;;;3.92;;
74042;SDS011;62384;53.600;10.040;2023-05-07T08:59:56;7.40;;;3.75;;
74042;SDS011;62384;53.600;10.040;2023-05-07T09:02:22;7.95;;;4.35;;
74042;SDS011;62384;53.600;10.040;2023-05-07T09:04:47;6.13;;;4.03;;
74042;SDS011;62384;53.600;10.040;2023-05-07T09:07:12;6.15;;;3.83;;
74042;SDS011;62384;53.600;10.040;2023-05-07T09:09:38;10.65;;;4.25;;
74042;SDS011;62384;53.600;10.040;2023-05-07T09:12:03;6.30;;;3.88;;
74042;SDS011;62384;53.600;10.040;2023-05-07T09:14:29;6.10;;;4.00;;
74042;SDS011;62384;53.600;10.040;2023-05-07T09:16:55;5.22;;;3.70;;
74042;SDS011;62384;53.600;10.040;2023-05-07T09:19:27;6.43;;;3.88;;
74042;SDS011;62384;53.600;10.040;2023-05-07T09:22:02;6.63;;;4.07;;
74042;SDS011;62384;53.600;10.040;2023-05-07T09:24:28;6.88;;;4.38;;
74042;SDS011;62384;53.600;10.040;2023-05-07T09:26:58;6.32;;;4.13;;
74042;SDS011;62384;53.600;10.040;2023-05-07T09:29:24;6.18;;;3.78;;
74042;SDS011;62384;53.600;10.040;2023-05-07T09:31:49;7.03;;;4.72;;
74042;SDS011;62384;53.600;10.040;2023-05-07T09:34:15;6.68;;;4.25;;
74042;SDS011;62384;53.600;10.040;2023-05-07T09:36:41;7.30;;;4.15;;
74042;SDS011;62384;53.600;10.040;2023-05-07T09:39:06;5.80;;;4.50;;
74042;SDS011;62384;53.600;10.040;2023-05-07T09:41:32;6.13;;;3.58;;
74042;SDS011;62384;53.600;10.040;2023-05-07T09:43:57;6.03;;;3.50;;
74042;SDS011;62384;53.600;10.040;2023-05-07T09:46:27;6.68;;;3.45;;
74042;SDS011;62384;53.600;10.040;2023-05-07T09:48:56;10.18;;;4.55;;
74042;SDS011;62384;53.600;10.040;2023-05-07T09:51:28;7.13;;;3.22;;
74042;SDS011;62384;53.600;10.040;2023-05-07T09:53:56;5.18;;;3.65;;
74042;SDS011;62384;53.600;10.040;2023-05-07T09:56:22;5.45;;;3.28;;
74042;SDS011;62384;53.600;10.040;2023-05-07T09:58:49;6.35;;;4.28;;
74042;SDS011;62384;53.600;10.040;2023-05-07T10:01:16;5.72;;;3.88;;
74042;SDS011;62384;53.600;10.040;2023-05-07T10:03:44;5.88;;;3.10;;
74042;SDS011;62384;53.600;10.040;2023-05-07T10:06:10;6.25;;;3.40;;
74042;SDS011;62384;53.600;10.040;2023-05-07T10:08:37;5.07;;;3.55;;
74042;SDS011;62384;53.600;10.040;2023-05-07T10:11:03;8.30;;;3.92;;
74042;SDS011;62384;53.600;10.040;2023-05-07T10:13:30;6.80;;;3.80;;
74042;SDS011;62384;53.600;10.040;2023-05-07T10:15:57;5.65;;;3.45;;
74042;SDS011;62384;53.600;10.040;2023-05-07T10:18:23;6.20;;;3.97;;
74042;SDS011;62384;53.600;10.040;2023-05-07T10:20:49;6.30;;;3.97;;
74042;SDS011;62384;53.600;10.040;2023-05-07T10:23:18;6.78;;;3.50;;
74042;SDS011;62384;53.600;10.040;2023-05-07T10:25:47;6.60;;;4.05;;
74042;SDS011;62384;53.600;10.040;2023-05-07T10:28:12;7.05;;;3.30;;
74042;SDS011;62384;53.600;10.040;2023-05-07T10:30:41;4.65;;;3.58;;
74042;SDS011;62384;53.600;10.040;2023-05-07T10:33:32;6.05;;;3.53;;
74042;SDS011;62384;53.600;10.040;2023-05-07T10:35:59;7.43;;;4.32;;
74042;SDS011;62384;53.600;10.040;2023-05-07T10:38:26;7.15;;;3.40;;
74042;SDS011;62384;53.600;10.040;2023-05-07T10:40:52;6.70;;;3.63;;
74042;SDS011;62384;53.600;10.040;2023-05-07T10:43:18;5.07;;;3.28;;
74042;SDS011;62384;53.600;10.040;2023-05-07T10:45:43;5.32;;;3.60;;
74042;SDS011;62384;53.600;10.040;2023-05-07T10:50:37;5.75;;;3.70;;
74042;SDS011;62384;53.600;10.040;2023-05-07T10:55:45;5.72;;;4.20;;
74042;SDS011;62384;53.600;10.040;2023-05-07T11:00:45;5.55;;;3.58;;
74042;SDS011;62384;53.600;10.040;2023-05-07T11:03:11;5.72;;;3.63;;
74042;SDS011;62384;53.600;10.040;2023-05-07T11:05:36;4.50;;;3.28;;
74042;SDS011;62384;53.600;10.040;2023-05-07T11:08:03;5.63;;;3.20;;
74042;SDS011;62384;53.600;10.040;2023-05-07T11:10:48;5.18;;;3.03;;
74042;SDS011;62384;53.600;10.040;2023-05-07T11:13:14;5.53;;;3.13;;
74042;SDS011;62384;53.600;10.040;2023-05-07T11:15:44;4.97;;;3.17;;
74042;SDS011;62384;53.600;10.040;2023-05-07T11:18:14;4.50;;;3.00;;
74042;SDS011;62384;53.600;10.040;2023-05-07T11:20:47;3.53;;;2.60;;
74042;SDS011;62384;53.600;10.040;2023-05-07T11:26:01;3.67;;;2.53;;
74042;SDS011;62384;53.600;10.040;2023-05-07T11:28:28;4.30;;;3.00;;
74042;SDS011;62384;53.600;10.040;2023-05-07T11:30:54;3.70;;;2.58;;
74042;SDS011;62384;53.600;10.040;2023-05-07T11:33:20;8.05;;;2.88;;
74042;SDS011;62384;53.600;10.040;2023-05-07T11:35:47;3.97;;;1.92;;
74042;SDS011;62384;53.600;10.040;2023-05-07T11:38:13;4.10;;;2.60;;
74042;SDS011;62384;53.600;10.040;2023-05-07T11:40:55;3.95;;;2.60;;
74042;SDS011;62384;53.600;10.040;2023-05-07T11:43:21;5.18;;;2.90;;
74042;SDS011;62384;53.600;10.040;2023-05-07T11:45:47;5.00;;;2.80;;
74042;SDS011;62384;53.600;10.040;2023-05-07T11:48:13;4.13;;;2.25;;
74042;SDS011;62384;53.600;10.040;2023-05-07T11:50:52;3.80;;;2.50;;
74042;SDS011;62384;53.600;10.040;2023-05-07T11:53:24;4.13;;;2.70;;
74042;SDS011;62384;53.600;10.040;2023-05-07T11:55:53;3.15;;;2.40;;
74042;SDS011;62384;53.600;10.040;2023-05-07T11:58:21;4.60;;;2.75;;
74042;SDS011;62384;53.600;10.040;2023-05-07T12:00:48;3.45;;;2.30;;
74042;SDS011;62384;53.600;10.040;2023-05-07T12:03:17;4.05;;;2.92;;
74042;SDS011;62384;53.600;10.040;2023-05-07T12:05:48;6.18;;;2.35;;
74042;SDS011;62384;53.600;10.040;2023-05-07T12:08:14;3.15;;;2.22;;
74042;SDS011;62384;53.600;10.040;2023-05-07T12:10:41;5.05;;;2.53;;
74042;SDS011;62384;53.600;10.040;2023-05-07T12:13:13;4.40;;;2.35;;
74042;SDS011;62384;53.600;10.040;2023-05-07T12:15:42;4.22;;;2.08;;
74042;SDS011;62384;53.600;10.040;2023-05-07T12:18:08;2.85;;;1.77;;
74042;SDS011;62384;53.600;10.040;2023-05-07T12:20:34;3.92;;;2.00;;
74042;SDS011;62384;53.600;10.040;2023-05-07T12:23:01;2.08;;;1.55;;
74042;SDS011;62384;53.600;10.040;2023-05-07T12:25:29;2.90;;;1.60;;
74042;SDS011;62384;53.600;10.040;2023-05-07T12:27:55;2.67;;;1.83;;
74042;SDS011;62384;53.600;10.040;2023-05-07T12:30:23;2.95;;;1.77;;
74042;SDS011;62384;53.600;10.040;2023-05-07T12:32:52;3.28;;;1.88;;
74042;SDS011;62384;53.600;10.040;2023-05-07T12:35:25;3.22;;;1.92;;
74042;SDS011;62384;53.600;10.040;2023-05-07T12:37:54;4.05;;;1.95;;
74042;SDS011;62384;53.600;10.040;2023-05-07T12:40:20;2.08;;;1.70;;
74042;SDS011;62384;53.600;10.040;2023-05-07T12:42:46;2.50;;;1.60;;
74042;SDS011;62384;53.600;10.040;2023-05-07T12:45:11;4.40;;;1.77;;
74042;SDS011;62384;53.600;10.040;2023-05-07T12:47:37;2.53;;;1.58;;
74042;SDS011;62384;53.600;10.040;2023-05-07T12:50:04;2.72;;;1.30;;
74042;SDS011;62384;53.600;10.040;2023-05-07T12:52:31;2.50;;;1.40;;
74042;SDS011;62384;53.600;10.040;2023-05-07T12:54:57;2.30;;;1.30;;
74042;SDS011;62384;53.600;10.040;2023-05-07T12:57:30;1.80;;;1.40;;
74042;SDS011;62384;53.600;10.040;2023-05-07T12:59:57;1.77;;;1.55;;
74042;SDS011;62384;53.600;10.040;2023-05-07T13:02:31;3.58;;;2.13;;
74042;SDS011;62384;53.600;10.040;2023-05-07T13:04:57;5.10;;;1.73;;
74042;SDS011;62384;53.600;10.040;2023-05-07T13:07:24;2.75;;;1.40;;
74042;SDS011;62384;53.600;10.040;2023-05-07T13:09:50;3.13;;;1.50;;
74042;SDS011;62384;53.600;10.040;2023-05-07T13:12:15;2.70;;;1.48;;
74042;SDS011;62384;53.600;10.040;2023-05-07T13:14:40;2.17;;;1.38;;
74042;SDS011;62384;53.600;10.040;2023-05-07T13:17:06;2.38;;;1.40;;
74042;SDS011;62384;53.600;10.040;2023-05-07T13:19:32;2.28;;;1.55;;
74042;SDS011;62384;53.600;10.040;2023-05-07T13:21:57;2.63;;;1.33;;
74042;SDS011;62384;53.600;10.040;2023-05-07T13:24:22;1.75;;;1.50;;
74042;SDS011;62384;53.600;10.040;2023-05-07T13:26:47;2.60;;;1.60;;
74042;SDS011;62384;53.600;10.040;2023-05-07T13:29:13;1.95;;;1.40;;
74042;SDS011;62384;53.600;10.040;2023-05-07T13:31:38;2.50;;;1.10;;
74042;SDS011;62384;53.600;10.040;2023-05-07T13:34:07;2.78;;;1.40;;
74042;SDS011;62384;53.600;10.040;2023-05-07T13:36:33;2.05;;;1.50;;
74042;SDS011;62384;53.600;10.040;2023-05-07T13:39:01;2.15;;;1.50;;
74042;SDS011;62384;53.600;10.040;2023-05-07T13:41:28;1.73;;;1.63;;
74042;SDS011;62384;53.600;10.040;2023-05-07T13:43:53;2.38;;;1.45;;
74042;SDS011;62384;53.600;10.040;2023-05-07T13:46:18;2.35;;;1.10;;
74042;SDS011;62384;53.600;10.040;2023-05-07T13:48:43;2.42;;;1.15;;
74042;SDS011;62384;53.600;10.040;2023-05-07T13:51:08;1.48;;;1.20;;
74042;SDS011;62384;53.600;10.040;2023-05-07T13:53:34;1.55;;;1.10;;
74042;SDS011;62384;53.600;10.040;2023-05-07T13:56:00;2.47;;;1.80;;
74042;SDS011;62384;53.600;10.040;2023-05-07T13:58:25;2.13;;;1.30;;
74042;SDS011;62384;53.600;10.040;2023-05-07T14:00:51;4.05;;;1.77;;
74042;SDS011;62384;53.600;10.040;2023-05-07T14:03:16;1.75;;;1.33;;
74042;SDS011;62384;53.600;10.040;2023-05-07T14:05:42;4.05;;;1.45;;
74042;SDS011;62384;53.600;10.040;2023-05-07T14:08:08;2.70;;;1.50;;
74042;SDS011;62384;53.600;10.040;2023-05-07T14:10:33;1.55;;;1.20;;
74042;SDS011;62384;53.600;10.040;2023-05-07T14:12:59;1.90;;;1.20;;
74042;SDS011;62384;53.600;10.040;2023-05-07T14:15:24;3.30;;;1.50;;
74042;SDS011;62384;53.600;10.040;2023-05-07T14:17:49;2.63;;;1.38;;
74042;SDS011;62384;53.600;10.040;2023-05-07T14:20:15;1.73;;;1.23;;
74042;SDS011;62384;53.600;10.040;2023-05-07T14:22:40;4.15;;;2.53;;
74042;SDS011;62384;53.600;10.040;2023-05-07T14:25:05;2.08;;;1.42;;
74042;SDS011;62384;53.600;10.040;2023-05-07T14:27:31;1.92;;;1.40;;
74042;SDS011;62384;53.600;10.040;2023-05-07T14:29:57;3.33;;;1.95;;
74042;SDS011;62384;53.600;10.040;2023-05-07T14:32:22;2.50;;;1.80;;